createdAt,value
2018-12-21T00:02:25.449Z,4.84
2018-12-21T00:04:54.367Z,4.96
2018-12-21T00:07:23.445Z,4.94
2018-12-21T00:09:52.446Z,5.11
2018-12-21T00:12:21.332Z,5.05
2018-12-21T00:14:50.288Z,5.13
2018-12-21T00:17:19.214Z,5.11
2018-12-21T00:19:48.171Z,5.06
2018-12-21T00:22:17.313Z,5.09
2018-12-21T00:24:46.381Z,5.09
2018-12-21T00:27:15.371Z,5.18
2018-12-21T00:29:44.360Z,5.22
2018-12-21T00:32:18.590Z,5.11
2018-12-21T00:34:52.945Z,5.17
2018-12-21T00:37:27.223Z,5.29
2018-12-21T00:40:01.471Z,5.35
2018-12-21T00:43:33.656Z,5.45
2018-12-21T00:46:08.374Z,5.45
2018-12-21T00:48:37.322Z,5.40
2018-12-21T00:51:06.187Z,5.50
2018-12-21T00:53:35.091Z,5.57
2018-12-21T00:56:04.233Z,5.61
2018-12-21T00:58:33.187Z,5.73
2018-12-21T01:01:02.362Z,5.70
2018-12-21T01:03:31.834Z,5.64
2018-12-21T01:06:00.918Z,5.62
2018-12-21T01:08:30.775Z,5.59
2018-12-21T01:10:59.809Z,5.59
2018-12-21T01:13:29.783Z,5.49
2018-12-21T01:15:58.729Z,5.47
2018-12-21T01:18:27.666Z,5.51
2018-12-21T01:20:56.704Z,5.53
2018-12-21T01:23:26.478Z,5.35
2018-12-21T01:25:55.438Z,5.36
2018-12-21T01:28:24.450Z,5.35
2018-12-21T01:30:56.345Z,5.37
2018-12-21T01:33:25.251Z,5.44
2018-12-21T01:35:54.244Z,5.60
2018-12-21T01:38:23.108Z,5.64
2018-12-21T01:40:52.022Z,5.55
2018-12-21T01:43:20.966Z,5.57
2018-12-21T01:45:49.862Z,5.63
2018-12-21T01:48:18.809Z,5.73
2018-12-21T01:50:47.736Z,5.78
2018-12-21T01:53:16.669Z,5.75
2018-12-21T01:55:45.578Z,5.62
2018-12-21T01:58:15.579Z,5.53
2018-12-21T02:00:44.457Z,5.55
2018-12-21T02:03:13.488Z,5.66
2018-12-21T02:05:42.431Z,5.57
2018-12-21T02:08:11.475Z,5.48
2018-12-21T02:10:40.433Z,5.63
2018-12-21T02:13:09.391Z,5.65
2018-12-21T02:15:38.414Z,5.77
2018-12-21T02:18:07.490Z,5.80
2018-12-21T02:20:36.505Z,5.74
2018-12-21T02:23:05.489Z,5.72
2018-12-21T02:25:34.569Z,5.85
2018-12-21T02:28:03.722Z,5.79
2018-12-21T02:30:32.676Z,5.85
2018-12-21T02:33:01.599Z,5.77
2018-12-21T02:35:30.529Z,5.81
2018-12-21T02:37:59.519Z,6.00
2018-12-21T02:40:28.629Z,5.91
2018-12-21T02:42:57.525Z,5.86
2018-12-21T02:45:26.454Z,5.77
2018-12-21T02:47:55.392Z,5.83
2018-12-21T02:50:24.350Z,5.89
2018-12-21T02:52:53.384Z,5.82
2018-12-21T02:55:22.306Z,5.88
2018-12-21T02:57:51.285Z,5.86
2018-12-21T03:00:20.236Z,5.82
2018-12-21T03:02:49.157Z,5.64
2018-12-21T03:05:18.174Z,5.71
2018-12-21T03:07:47.170Z,5.79
2018-12-21T03:10:16.106Z,5.64
2018-12-21T03:12:45.178Z,5.57
2018-12-21T03:15:14.103Z,5.66
2018-12-21T03:17:43.139Z,5.72
2018-12-21T03:20:12.125Z,5.75
2018-12-21T03:22:41.105Z,5.71
2018-12-21T03:25:10.074Z,5.78
2018-12-21T03:27:39.005Z,5.65
2018-12-21T03:30:08.864Z,5.81
2018-12-21T03:32:37.830Z,5.87
2018-12-21T03:35:07.217Z,5.81
2018-12-21T03:37:36.206Z,5.78
2018-12-21T03:40:05.578Z,5.74
2018-12-21T03:42:34.857Z,5.67
2018-12-21T03:45:03.978Z,5.76
2018-12-21T03:47:32.963Z,5.77
2018-12-21T03:50:01.878Z,5.71
2018-12-21T03:52:30.822Z,5.68
2018-12-21T03:54:59.984Z,5.76
2018-12-21T03:57:28.942Z,5.78
2018-12-21T03:59:57.971Z,5.73
2018-12-21T04:02:26.897Z,5.68
2018-12-21T04:04:55.921Z,5.56
2018-12-21T04:07:24.913Z,5.53
2018-12-21T04:09:53.854Z,5.47
2018-12-21T04:12:22.815Z,5.47
2018-12-21T04:14:52.381Z,5.57
2018-12-21T04:17:21.352Z,5.35
2018-12-21T04:19:50.263Z,5.08
2018-12-21T04:22:19.188Z,5.04
2018-12-21T04:24:48.083Z,4.94
2018-12-21T04:27:17.011Z,4.92
2018-12-21T04:29:45.887Z,4.78
2018-12-21T04:32:14.858Z,4.69
2018-12-21T04:34:43.837Z,4.55
2018-12-21T04:37:12.838Z,4.42
2018-12-21T04:39:41.694Z,4.39
2018-12-21T04:42:10.674Z,4.40
2018-12-21T04:44:39.704Z,4.39
2018-12-21T04:47:08.649Z,4.34
2018-12-21T04:49:37.570Z,4.37
2018-12-21T04:52:06.451Z,4.24
2018-12-21T04:54:35.383Z,4.26
2018-12-21T04:57:04.320Z,4.33
2018-12-21T04:59:33.277Z,4.25
2018-12-21T05:02:02.744Z,4.25
2018-12-21T05:04:31.756Z,4.29
2018-12-21T05:07:00.708Z,4.24
2018-12-21T05:09:29.627Z,4.19
2018-12-21T05:11:58.773Z,4.21
2018-12-21T05:14:27.704Z,4.08
2018-12-21T05:16:56.677Z,4.02
2018-12-21T05:19:25.588Z,4.00
2018-12-21T05:21:54.638Z,3.97
2018-12-21T05:24:23.654Z,3.91
2018-12-21T05:26:53.699Z,3.89
2018-12-21T05:29:22.583Z,3.82
2018-12-21T05:31:51.507Z,3.81
2018-12-21T05:34:20.439Z,3.77
2018-12-21T05:36:49.392Z,3.67
2018-12-21T05:39:18.318Z,3.68
2018-12-21T05:41:47.258Z,3.66
2018-12-21T05:44:16.183Z,3.61
2018-12-21T05:46:45.268Z,3.67
2018-12-21T05:49:14.239Z,3.79
2018-12-21T05:51:43.478Z,3.74
2018-12-21T05:54:12.385Z,3.78
2018-12-21T05:56:41.283Z,3.78
2018-12-21T05:59:10.228Z,3.83
2018-12-21T06:01:39.109Z,3.80
2018-12-21T06:04:08.096Z,3.81
2018-12-21T06:06:37.511Z,3.80
2018-12-21T06:09:08.119Z,3.73
2018-12-21T06:11:37.165Z,3.70
2018-12-21T06:14:06.108Z,3.68
2018-12-21T06:16:35.066Z,3.66
2018-12-21T06:19:04.094Z,3.64
2018-12-21T06:21:32.990Z,3.60
2018-12-21T06:24:02.004Z,3.76
2018-12-21T06:26:30.858Z,3.84
2018-12-21T06:28:59.861Z,3.81
2018-12-21T06:31:28.813Z,3.82
2018-12-21T06:33:57.747Z,3.70
2018-12-21T06:36:26.622Z,3.61
2018-12-21T06:38:55.723Z,3.60
2018-12-21T06:41:24.705Z,3.50
2018-12-21T06:43:53.635Z,3.49
2018-12-21T06:46:22.562Z,3.43
2018-12-21T06:48:51.488Z,3.50
2018-12-21T06:51:20.599Z,3.48
2018-12-21T06:53:49.689Z,3.51
2018-12-21T06:56:18.598Z,3.49
2018-12-21T06:58:47.646Z,3.40
2018-12-21T07:01:16.588Z,3.56
2018-12-21T07:03:45.630Z,3.42
2018-12-21T07:06:14.658Z,3.69
2018-12-21T07:08:43.598Z,3.86
2018-12-21T07:11:12.527Z,4.13
2018-12-21T07:13:41.403Z,4.19
2018-12-21T07:16:10.423Z,3.94
2018-12-21T07:18:39.472Z,3.72
2018-12-21T07:21:08.525Z,3.60
2018-12-21T07:23:38.408Z,3.55
2018-12-21T07:26:07.523Z,3.63
2018-12-21T07:28:36.468Z,3.55
2018-12-21T07:31:05.638Z,3.65
2018-12-21T07:33:34.575Z,3.74
2018-12-21T07:36:08.379Z,3.96
2018-12-21T07:38:34.893Z,4.01
2018-12-21T07:41:04.040Z,3.97
2018-12-21T07:43:32.929Z,3.94
2018-12-21T07:46:01.930Z,4.02
2018-12-21T07:48:30.852Z,4.02
2018-12-21T07:50:59.874Z,3.96
2018-12-21T07:53:35.791Z,3.99
2018-12-21T07:55:59.928Z,4.20
2018-12-21T07:58:28.906Z,4.30
2018-12-21T08:00:57.878Z,4.54
2018-12-21T08:03:27.063Z,4.46
2018-12-21T08:05:56.046Z,4.57
2018-12-21T08:08:24.994Z,4.49
2018-12-21T08:10:53.939Z,4.62
2018-12-21T08:13:24.095Z,4.71
2018-12-21T08:15:53.081Z,4.85
2018-12-21T08:18:22.105Z,5.04
2018-12-21T08:20:51.155Z,4.94
2018-12-21T08:25:54.192Z,5.07
2018-12-21T08:28:23.083Z,5.82
2018-12-21T08:30:52.160Z,6.07
2018-12-21T08:33:21.060Z,6.62
2018-12-21T08:35:50.035Z,7.00
2018-12-21T08:38:18.926Z,6.45
2018-12-21T08:40:47.948Z,6.56
2018-12-21T08:43:16.890Z,6.68
2018-12-21T08:45:45.918Z,7.05
2018-12-21T08:48:14.902Z,7.53
2018-12-21T08:50:43.860Z,7.69
2018-12-21T08:53:12.895Z,7.84
2018-12-21T08:55:41.779Z,7.63
2018-12-21T08:58:10.804Z,7.46
2018-12-21T09:00:39.675Z,7.00
2018-12-21T09:03:08.636Z,7.23
2018-12-21T09:05:37.731Z,7.10
2018-12-21T09:08:06.879Z,7.22
2018-12-21T09:10:35.902Z,7.46
2018-12-21T09:13:05.887Z,7.57
2018-12-21T09:15:34.798Z,7.45
2018-12-21T09:18:03.805Z,7.68
2018-12-21T09:20:32.860Z,7.64
2018-12-21T09:23:01.749Z,7.74
2018-12-21T09:25:30.830Z,7.70
2018-12-21T09:27:59.710Z,7.45
2018-12-21T09:33:03.957Z,6.79
2018-12-21T09:35:33.124Z,6.66
2018-12-21T09:38:02.085Z,6.41
2018-12-21T09:40:31.123Z,6.21
2018-12-21T09:43:00.003Z,6.02
2018-12-21T09:45:30.002Z,5.79
2018-12-21T09:47:58.887Z,5.59
2018-12-21T09:50:27.914Z,5.46
2018-12-21T09:52:57.804Z,5.50
2018-12-21T09:55:26.810Z,5.46
2018-12-21T09:57:55.778Z,5.46
2018-12-21T10:00:24.764Z,5.52
2018-12-21T10:02:53.662Z,5.54
2018-12-21T10:05:22.684Z,5.56
2018-12-21T10:07:51.626Z,5.65
2018-12-21T10:12:54.821Z,5.64
2018-12-21T10:15:23.734Z,5.60
2018-12-21T10:17:53.747Z,5.55
2018-12-21T10:20:22.855Z,5.55
2018-12-21T10:30:35.774Z,5.57
2018-12-21T10:33:04.695Z,5.45
2018-12-21T10:35:34.065Z,5.49
2018-12-21T10:38:03.057Z,5.42
2018-12-21T10:40:32.149Z,5.59
2018-12-21T10:43:01.098Z,5.47
2018-12-21T10:45:30.015Z,5.59
2018-12-21T10:48:00.095Z,5.58
2018-12-21T10:50:30.352Z,5.58
2018-12-21T10:53:00.294Z,5.44
2018-12-21T10:55:29.166Z,5.41
2018-12-21T10:57:58.075Z,5.47
2018-12-21T11:00:27.039Z,5.47
2018-12-21T11:02:57.023Z,5.36
2018-12-21T11:05:25.952Z,5.38
2018-12-21T11:07:54.862Z,5.46
2018-12-21T11:10:23.720Z,5.42
2018-12-21T11:12:52.706Z,5.38
2018-12-21T11:15:21.708Z,5.37
2018-12-21T11:17:50.719Z,5.38
2018-12-21T11:20:19.743Z,5.34
2018-12-21T11:22:48.715Z,5.33
2018-12-21T11:25:17.925Z,5.24
2018-12-21T11:27:46.870Z,5.20
2018-12-21T11:30:16.477Z,5.13
2018-12-21T11:32:45.382Z,4.90
2018-12-21T11:35:14.422Z,4.90
2018-12-21T11:37:43.352Z,4.84
2018-12-21T11:40:12.433Z,4.83
2018-12-21T11:42:41.305Z,4.98
2018-12-21T11:47:45.258Z,4.68
2018-12-21T11:50:14.393Z,4.55
2018-12-21T11:52:43.337Z,4.49
2018-12-21T11:55:12.286Z,4.42
2018-12-21T11:57:41.296Z,4.45
2018-12-21T12:00:10.748Z,4.49
2018-12-21T12:02:39.674Z,4.40
2018-12-21T12:05:08.866Z,4.45
2018-12-21T12:07:39.781Z,4.60
2018-12-21T12:10:09.255Z,4.56
2018-12-21T12:12:39.412Z,4.68
2018-12-21T12:15:09.884Z,4.85
2018-12-21T12:17:38.865Z,4.70
2018-12-21T12:20:07.986Z,4.63
2018-12-21T12:22:37.923Z,4.83
2018-12-21T12:25:07.096Z,4.96
2018-12-21T12:27:36.137Z,5.01
2018-12-21T12:30:06.318Z,5.02
2018-12-21T12:32:35.210Z,5.08
2018-12-21T12:35:04.460Z,5.02
2018-12-21T12:37:33.422Z,5.15
2018-12-21T12:40:02.432Z,5.28
2018-12-21T12:42:31.548Z,5.28
2018-12-21T12:45:00.594Z,5.28
2018-12-21T12:47:29.531Z,5.49
2018-12-21T12:49:58.414Z,5.64
2018-12-21T12:52:27.410Z,5.72
2018-12-21T12:55:02.659Z,5.90
2018-12-21T12:57:27.447Z,5.96
2018-12-21T12:59:56.486Z,6.09
2018-12-21T13:02:25.517Z,6.13
2018-12-21T13:04:54.442Z,6.23
2018-12-21T13:07:23.391Z,6.29
2018-12-21T13:09:52.615Z,6.38
2018-12-21T13:12:21.862Z,6.44
2018-12-21T13:14:51.014Z,6.62
2018-12-21T13:17:20.106Z,6.70
2018-12-21T13:19:49.048Z,6.77
2018-12-21T13:22:18.043Z,6.93
2018-12-21T13:24:46.940Z,7.10
2018-12-21T13:27:16.098Z,7.28
2018-12-21T13:29:45.024Z,7.38
2018-12-21T13:32:13.977Z,7.62
2018-12-21T13:34:42.918Z,7.79
2018-12-21T13:37:11.939Z,7.87
2018-12-21T13:39:40.885Z,7.96
2018-12-21T13:42:09.829Z,8.14
2018-12-21T13:44:38.782Z,8.26
2018-12-21T13:47:07.766Z,8.40
2018-12-21T13:49:36.794Z,8.39
2018-12-21T13:52:05.958Z,8.50
2018-12-21T13:54:35.123Z,8.58
2018-12-21T13:57:04.547Z,8.68
2018-12-21T13:59:33.481Z,8.63
2018-12-21T14:02:02.582Z,8.69
2018-12-21T14:04:31.590Z,8.63
2018-12-21T14:07:00.542Z,8.63
2018-12-21T14:09:29.758Z,8.56
2018-12-21T14:11:58.818Z,8.44
2018-12-21T14:14:27.877Z,8.32
2018-12-21T14:16:56.807Z,8.18
2018-12-21T14:19:25.781Z,8.09
2018-12-21T14:21:54.683Z,8.06
2018-12-21T14:24:23.896Z,8.04
2018-12-21T14:26:52.925Z,7.96
2018-12-21T14:29:21.826Z,8.04
2018-12-21T14:31:50.804Z,8.04
2018-12-21T14:34:19.696Z,7.98
2018-12-21T14:36:48.842Z,8.08
2018-12-21T14:39:17.851Z,8.09
2018-12-21T14:41:46.779Z,8.23
2018-12-21T14:44:15.739Z,8.28
2018-12-21T14:46:45.401Z,8.34
2018-12-21T14:49:14.302Z,8.43
2018-12-21T14:51:43.278Z,8.49
2018-12-21T14:54:12.494Z,8.47
2018-12-21T14:56:41.450Z,8.37
2018-12-21T14:59:10.639Z,8.42
2018-12-21T15:01:39.707Z,8.41
2018-12-21T15:04:08.665Z,8.49
2018-12-21T15:06:38.570Z,8.50
2018-12-21T15:09:07.942Z,8.47
2018-12-21T15:11:36.913Z,8.40
2018-12-21T15:14:05.813Z,8.46
2018-12-21T15:16:34.782Z,8.43
2018-12-21T15:19:03.809Z,8.49
2018-12-21T15:21:32.771Z,8.50
2018-12-21T15:24:01.929Z,8.71
2018-12-21T15:26:30.886Z,8.76
2018-12-21T15:29:00.019Z,8.76
2018-12-21T15:31:29.258Z,8.78
2018-12-21T15:33:58.243Z,8.76
2018-12-21T15:36:27.358Z,8.66
2018-12-21T15:38:56.252Z,8.73
2018-12-21T15:41:25.283Z,8.67
2018-12-21T15:43:54.286Z,8.52
2018-12-21T15:46:23.210Z,8.45
2018-12-21T15:48:52.116Z,8.43
2018-12-21T15:51:21.311Z,8.55
2018-12-21T15:53:50.274Z,8.56
2018-12-21T15:56:19.176Z,8.65
2018-12-21T15:58:48.101Z,8.80
2018-12-21T16:01:16.974Z,8.98
2018-12-21T16:03:45.916Z,9.02
2018-12-21T16:06:15.886Z,9.01
2018-12-21T16:08:44.850Z,9.06
2018-12-21T16:11:13.739Z,9.03
2018-12-21T16:13:42.703Z,9.13
2018-12-21T16:16:11.623Z,9.12
2018-12-21T16:18:41.669Z,9.16
2018-12-21T16:21:10.552Z,9.27
2018-12-21T16:23:39.507Z,9.30
2018-12-21T16:26:08.393Z,9.33
2018-12-21T16:28:37.326Z,9.27
2018-12-21T16:31:06.201Z,9.32
2018-12-21T16:33:35.088Z,9.56
2018-12-21T16:36:04.745Z,9.60
2018-12-21T16:38:34.081Z,9.65
2018-12-21T16:41:03.007Z,9.59
2018-12-21T16:43:31.942Z,9.60
2018-12-21T16:46:00.930Z,9.66
2018-12-21T16:48:29.894Z,9.65
2018-12-21T16:50:58.844Z,9.62
2018-12-21T16:53:27.886Z,9.65
2018-12-21T16:55:56.915Z,9.67
2018-12-21T16:58:25.927Z,9.57
2018-12-21T17:00:54.831Z,9.58
2018-12-21T17:03:23.881Z,9.56
2018-12-21T17:05:52.866Z,9.78
2018-12-21T17:08:21.811Z,9.67
2018-12-21T17:10:50.718Z,9.60
2018-12-21T17:13:19.730Z,9.62
2018-12-21T17:15:48.656Z,9.64
2018-12-21T17:18:18.107Z,9.70
2018-12-21T17:20:47.139Z,9.77
2018-12-21T17:23:16.101Z,9.73
2018-12-21T17:25:45.134Z,9.76
2018-12-21T17:28:14.098Z,9.80
2018-12-21T17:30:43.058Z,9.83
2018-12-21T17:33:11.994Z,9.82
2018-12-21T17:35:41.067Z,9.69
2018-12-21T17:38:10.000Z,9.79
2018-12-21T17:40:38.953Z,9.74
2018-12-21T17:43:07.875Z,9.70
2018-12-21T17:45:36.740Z,9.77
2018-12-21T17:48:05.662Z,9.68
2018-12-21T17:50:34.543Z,9.78
2018-12-21T17:53:03.606Z,9.77
2018-12-21T17:55:32.601Z,9.80
2018-12-21T17:58:03.374Z,9.76
2018-12-21T18:00:32.473Z,9.73
2018-12-21T18:03:01.582Z,9.87
2018-12-21T18:05:30.766Z,9.76
2018-12-21T18:07:59.852Z,9.81
2018-12-21T18:10:29.058Z,9.67
2018-12-21T18:12:57.936Z,9.66
2018-12-21T18:15:26.966Z,9.68
2018-12-21T18:17:55.877Z,9.65
2018-12-21T18:20:25.158Z,9.72
2018-12-21T18:22:54.285Z,9.79
2018-12-21T18:25:27.097Z,9.84
2018-12-21T18:27:58.661Z,9.85
2018-12-21T18:30:30.482Z,9.80
2018-12-21T18:33:10.288Z,9.92
2018-12-21T18:35:32.884Z,9.96
2018-12-21T18:38:04.539Z,9.98
2018-12-21T18:40:33.913Z,10.06
2018-12-21T18:43:02.836Z,10.09
2018-12-21T18:45:31.781Z,10.10
2018-12-21T18:48:00.738Z,10.13
2018-12-21T18:50:31.503Z,10.03
2018-12-21T18:53:00.421Z,10.17
2018-12-21T18:55:29.915Z,10.22
2018-12-21T18:57:58.941Z,10.07
2018-12-21T19:00:27.850Z,10.11
2018-12-21T19:02:56.785Z,10.10
2018-12-21T19:05:26.639Z,10.16
2018-12-21T19:07:55.571Z,10.16
2018-12-21T19:10:24.603Z,10.09
2018-12-21T19:12:53.501Z,10.10
2018-12-21T19:15:22.824Z,10.24
2018-12-21T19:17:51.779Z,10.14
2018-12-21T19:20:20.674Z,10.15
2018-12-21T19:22:49.778Z,10.15
2018-12-21T19:25:19.850Z,10.19
2018-12-21T19:27:48.862Z,10.18
2018-12-21T19:30:17.755Z,10.06
2018-12-21T19:32:50.386Z,10.11
2018-12-21T19:35:27.267Z,10.08
2018-12-21T19:37:50.254Z,10.06
2018-12-21T19:40:19.157Z,10.07
2018-12-21T19:42:48.173Z,9.99
2018-12-21T19:45:17.048Z,10.01
2018-12-21T19:47:46.030Z,10.11
2018-12-21T19:50:15.052Z,10.12
2018-12-21T19:52:43.999Z,10.03
2018-12-21T19:55:18.345Z,10.03
2018-12-21T19:57:47.253Z,10.11
2018-12-21T20:00:16.200Z,10.05
2018-12-21T20:02:45.209Z,10.13
2018-12-21T20:05:14.380Z,10.09
2018-12-21T20:07:43.327Z,10.06
2018-12-21T20:10:12.859Z,10.09
2018-12-21T20:12:41.806Z,10.06
2018-12-21T20:15:10.999Z,10.06
2018-12-21T20:17:40.068Z,10.04
2018-12-21T20:20:10.423Z,10.15
2018-12-21T20:22:40.409Z,10.21
2018-12-21T20:25:10.765Z,10.08
2018-12-21T20:27:40.495Z,10.09
2018-12-21T20:30:12.717Z,10.11
2018-12-21T20:32:41.973Z,10.27
2018-12-21T20:35:11.134Z,10.22
2018-12-21T20:37:40.112Z,10.28
2018-12-21T20:40:11.020Z,10.24
2018-12-21T20:42:39.971Z,10.26
2018-12-21T20:45:10.007Z,10.19
2018-12-21T20:47:39.275Z,10.23
2018-12-21T20:50:11.969Z,10.30
2018-12-21T20:52:41.127Z,10.31
2018-12-21T20:55:10.401Z,10.28
2018-12-21T20:57:40.237Z,10.42
2018-12-21T21:00:12.739Z,10.33
2018-12-21T21:02:41.988Z,10.31
2018-12-21T21:05:11.111Z,10.46
2018-12-21T21:07:40.161Z,10.41
2018-12-21T21:10:11.882Z,10.41
2018-12-21T21:12:41.342Z,10.43
2018-12-21T21:15:12.026Z,10.39
2018-12-21T21:17:41.025Z,10.47
2018-12-21T21:20:12.477Z,10.48
2018-12-21T21:22:41.506Z,10.46
2018-12-21T21:25:10.554Z,10.42
2018-12-21T21:27:39.474Z,10.40
2018-12-21T21:30:13.484Z,10.45
2018-12-21T21:32:42.448Z,10.48
2018-12-21T21:35:11.856Z,10.51
2018-12-21T21:37:40.827Z,10.51
2018-12-21T21:40:13.336Z,10.54
2018-12-21T21:42:42.612Z,10.47
2018-12-21T21:45:11.724Z,10.50
2018-12-21T21:47:41.210Z,10.45
2018-12-21T21:50:10.393Z,10.34
2018-12-21T21:52:39.369Z,10.41
2018-12-21T21:55:08.433Z,10.42
2018-12-21T21:57:39.632Z,10.39
2018-12-21T22:00:11.921Z,10.48
2018-12-21T22:02:40.988Z,10.46
2018-12-21T22:05:10.306Z,10.47
2018-12-21T22:07:39.228Z,10.53
2018-12-21T22:10:10.400Z,10.67
2018-12-21T22:12:39.305Z,10.56
2018-12-21T22:15:09.760Z,10.46
2018-12-21T22:17:38.743Z,10.43
2018-12-21T22:20:10.135Z,10.48
2018-12-21T22:22:39.157Z,10.47
2018-12-21T22:25:08.255Z,10.57
2018-12-21T22:27:37.270Z,10.55
2018-12-21T22:30:08.870Z,10.65
2018-12-21T22:32:38.861Z,10.57
2018-12-21T22:35:08.445Z,10.67
2018-12-21T22:37:38.415Z,10.66
2018-12-21T22:40:07.852Z,10.72
2018-12-21T22:42:36.894Z,10.68
2018-12-21T22:45:07.162Z,10.74
2018-12-21T22:47:36.130Z,10.75
2018-12-21T22:50:06.545Z,10.76
2018-12-21T22:52:35.728Z,10.70
2018-12-21T22:55:05.178Z,10.63
2018-12-21T22:57:34.119Z,10.71
2018-12-21T23:00:03.302Z,10.70
2018-12-21T23:02:33.919Z,10.63
2018-12-21T23:05:02.961Z,10.68
2018-12-21T23:07:32.028Z,10.71
2018-12-21T23:10:00.939Z,10.65
2018-12-21T23:12:29.854Z,10.66
2018-12-21T23:14:59.007Z,10.81
2018-12-21T23:17:27.906Z,10.86
2018-12-21T23:19:56.853Z,10.81
2018-12-21T23:22:25.927Z,10.83
2018-12-21T23:24:54.889Z,10.74
2018-12-21T23:27:24.722Z,10.57
2018-12-21T23:29:53.785Z,10.46
2018-12-21T23:32:22.726Z,10.39
2018-12-21T23:34:51.706Z,10.43
2018-12-21T23:37:20.670Z,10.47
2018-12-21T23:39:50.098Z,10.57
2018-12-21T23:42:19.018Z,10.56
2018-12-21T23:44:48.114Z,10.62
2018-12-21T23:47:17.041Z,10.70
2018-12-21T23:49:46.058Z,10.69
2018-12-21T23:52:15.105Z,10.67
2018-12-21T23:54:44.090Z,10.60
2018-12-21T23:57:13.079Z,10.46
2018-12-21T23:59:42.215Z,10.45
